createdAt,value
2022-08-03T00:00:01.382Z,17.20
2022-08-03T00:03:51.103Z,18.00
2022-08-03T00:07:21.123Z,17.40
2022-08-03T00:13:56.096Z,15.90
2022-08-03T00:17:25.712Z,16.10
2022-08-03T00:20:45.642Z,16.20
2022-08-03T00:24:18.016Z,17.00
2022-08-03T00:27:28.056Z,16.60
2022-08-03T00:30:46.818Z,17.10
2022-08-03T00:34:07.191Z,15.80
2022-08-03T00:37:02.838Z,17.50
2022-08-03T00:39:54.364Z,16.80
2022-08-03T00:43:14.474Z,15.90
2022-08-03T00:46:26.203Z,16.90
2022-08-03T00:49:37.872Z,17.00
2022-08-03T00:52:47.544Z,16.60
2022-08-03T00:55:45.626Z,16.20
2022-08-03T00:59:02.515Z,16.00
2022-08-03T01:05:19.981Z,14.70
2022-08-03T01:08:31.849Z,16.10
2022-08-03T01:12:01.681Z,15.40
2022-08-03T01:15:17.302Z,14.80
2022-08-03T01:18:52.814Z,15.30
2022-08-03T01:22:04.402Z,14.70
2022-08-03T01:25:44.537Z,14.70
2022-08-03T01:29:00.796Z,14.80
2022-08-03T01:32:53.429Z,15.50
2022-08-03T01:35:52.537Z,15.50
2022-08-03T01:38:52.704Z,15.40
2022-08-03T01:42:12.361Z,15.20
2022-08-03T01:45:34.617Z,15.20
2022-08-03T01:49:09.189Z,14.60
2022-08-03T01:52:14.579Z,14.70
2022-08-03T01:55:28.293Z,14.50
2022-08-03T01:58:40.422Z,14.60
2022-08-03T02:01:26.437Z,15.20
2022-08-03T02:04:50.413Z,15.20
2022-08-03T02:08:01.124Z,14.00
2022-08-03T02:10:59.414Z,14.60
2022-08-03T02:13:56.253Z,14.00
2022-08-03T02:17:00.535Z,14.60
2022-08-03T02:20:00.669Z,13.90
2022-08-03T02:22:46.153Z,14.60
2022-08-03T02:25:25.010Z,14.00
2022-08-03T02:28:11.487Z,13.90
2022-08-03T02:30:58.219Z,13.90
2022-08-03T02:33:53.887Z,14.20
2022-08-03T02:36:38.324Z,13.80
2022-08-03T02:39:26.972Z,13.80
2022-08-03T02:42:12.203Z,13.60
2022-08-03T02:45:08.228Z,14.10
2022-08-03T02:47:54.482Z,13.30
2022-08-03T02:50:36.583Z,13.80
2022-08-03T02:53:34.416Z,13.90
2022-08-03T02:56:12.810Z,14.00
2022-08-03T02:59:01.922Z,13.00
2022-08-03T03:01:47.525Z,13.30
2022-08-03T03:07:13.283Z,12.60
2022-08-03T03:09:55.257Z,13.00
2022-08-03T03:12:39.988Z,13.90
2022-08-03T03:15:22.995Z,14.10
2022-08-03T03:18:00.657Z,13.50
2022-08-03T03:20:44.880Z,13.80
2022-08-03T03:23:29.405Z,13.80
2022-08-03T03:26:06.091Z,13.10
2022-08-03T03:28:45.231Z,13.40
2022-08-03T03:31:19.133Z,13.20
2022-08-03T03:33:55.944Z,13.80
2022-08-03T03:36:41.416Z,13.20
2022-08-03T03:39:26.868Z,13.40
2022-08-03T03:42:09.706Z,13.40
2022-08-03T03:45:01.534Z,12.90
2022-08-03T03:47:39.863Z,13.80
2022-08-03T03:50:41.819Z,14.00
2022-08-03T03:53:30.345Z,13.30
2022-08-03T03:56:07.704Z,13.70
2022-08-03T03:58:54.085Z,13.10
2022-08-03T04:01:32.484Z,12.90
2022-08-03T04:04:31.083Z,13.90
2022-08-03T04:07:30.903Z,14.20
2022-08-03T04:10:26.670Z,14.10
2022-08-03T04:13:12.473Z,13.90
2022-08-03T04:18:48.440Z,13.80
2022-08-03T04:21:40.425Z,13.90
2022-08-03T04:24:36.589Z,14.40
2022-08-03T04:27:31.628Z,14.60
2022-08-03T04:30:13.768Z,14.90
2022-08-03T04:33:06.951Z,13.60
2022-08-03T04:36:01.228Z,15.10
2022-08-03T04:38:59.519Z,15.20
2022-08-03T04:42:07.693Z,14.30
2022-08-03T04:44:39.805Z,14.40
2022-08-03T04:47:27.461Z,14.70
2022-08-03T04:50:21.786Z,15.80
2022-08-03T04:53:11.746Z,15.50
2022-08-03T04:55:58.224Z,15.50
2022-08-03T04:58:38.302Z,16.60
2022-08-03T05:01:20.768Z,15.10
2022-08-03T05:04:00.945Z,16.10
2022-08-03T05:06:47.838Z,15.70
2022-08-03T05:09:50.097Z,16.90
2022-08-03T05:12:20.537Z,17.10
2022-08-03T05:14:56.977Z,17.50
2022-08-03T05:17:34.093Z,18.00
2022-08-03T05:20:11.682Z,17.60
2022-08-03T05:23:05.301Z,17.50
2022-08-03T05:25:49.589Z,17.40
2022-08-03T05:28:31.186Z,16.70
2022-08-03T05:31:13.421Z,16.10
2022-08-03T05:34:04.514Z,18.70
2022-08-03T05:36:57.241Z,17.20
2022-08-03T05:39:45.651Z,18.10
2022-08-03T05:42:39.439Z,17.70
2022-08-03T05:45:36.398Z,17.70
2022-08-03T05:48:29.807Z,17.10
2022-08-03T05:51:14.747Z,17.60
2022-08-03T05:54:13.424Z,18.20
2022-08-03T05:56:52.793Z,16.80
2022-08-03T05:59:38.056Z,19.60
2022-08-03T06:02:09.757Z,18.30
2022-08-03T06:04:45.559Z,17.70
2022-08-03T06:07:27.147Z,17.60
2022-08-03T06:10:36.029Z,17.30
2022-08-03T06:12:59.442Z,17.20
2022-08-03T06:15:33.307Z,17.70
2022-08-03T06:18:17.304Z,17.90
2022-08-03T06:20:53.199Z,18.90
2022-08-03T06:23:54.532Z,17.70
2022-08-03T06:26:29.962Z,16.40
2022-08-03T06:29:00.707Z,15.10
2022-08-03T06:31:37.143Z,17.20
2022-08-03T06:34:30.627Z,16.30
2022-08-03T06:37:03.524Z,13.80
2022-08-03T06:39:34.461Z,13.40
2022-08-03T06:42:07.843Z,12.00
2022-08-03T06:44:43.873Z,13.00
2022-08-03T06:47:20.052Z,12.70
2022-08-03T06:50:12.652Z,12.00
2022-08-03T06:52:41.528Z,10.60
2022-08-03T06:55:15.684Z,10.20
2022-08-03T06:57:53.751Z,10.20
2022-08-03T07:00:27.025Z,10.30
2022-08-03T07:03:00.878Z,9.90
2022-08-03T07:05:35.327Z,11.10
2022-08-03T07:08:08.767Z,10.60
2022-08-03T07:10:39.079Z,10.10
2022-08-03T07:13:12.403Z,12.30
2022-08-03T07:15:55.583Z,10.00
2022-08-03T07:18:29.601Z,8.90
2022-08-03T07:21:09.120Z,9.70
2022-08-03T07:23:42.903Z,9.80
2022-08-03T07:26:13.912Z,9.10
2022-08-03T07:28:46.730Z,8.50
2022-08-03T07:31:19.257Z,8.90
2022-08-03T07:33:50.165Z,8.10
2022-08-03T07:36:24.984Z,6.70
2022-08-03T07:38:58.731Z,5.30
2022-08-03T07:41:29.580Z,5.80
2022-08-03T07:44:03.879Z,5.50
2022-08-03T07:46:37.626Z,5.80
2022-08-03T07:49:11.575Z,5.60
2022-08-03T07:51:42.795Z,5.50
2022-08-03T07:54:16.548Z,6.10
2022-08-03T07:56:50.851Z,5.30
2022-08-03T07:59:27.596Z,4.60
2022-08-03T08:02:01.575Z,5.00
2022-08-03T08:04:32.086Z,5.00
2022-08-03T08:07:05.770Z,4.70
2022-08-03T08:09:40.268Z,5.00
2022-08-03T08:12:15.614Z,5.20
2022-08-03T08:14:49.621Z,5.30
2022-08-03T08:17:20.467Z,4.50
2022-08-03T08:19:54.539Z,4.00
2022-08-03T08:22:32.451Z,4.60
2022-08-03T08:25:42.644Z,4.20
2022-08-03T08:29:00.049Z,4.60
2022-08-03T08:32:19.935Z,3.70
2022-08-03T08:35:39.819Z,3.60
2022-08-03T08:39:08.905Z,3.80
2022-08-03T08:42:37.796Z,3.60
2022-08-03T08:46:25.800Z,3.80
2022-08-03T09:24:02.240Z,2.70
2022-08-03T10:11:40.385Z,2.50
2022-08-03T10:15:10.090Z,2.50
2022-08-03T10:18:57.146Z,2.40
2022-08-03T10:22:00.870Z,2.30
2022-08-03T10:25:33.347Z,2.50
2022-08-03T10:29:02.089Z,2.60
2022-08-03T10:32:17.343Z,2.60
2022-08-03T10:35:49.477Z,2.70
2022-08-03T10:50:14.182Z,3.10
2022-08-03T10:53:54.900Z,3.30
2022-08-03T10:57:31.881Z,3.00
2022-08-03T11:01:02.966Z,6.20
2022-08-03T11:04:37.721Z,3.30
2022-08-03T11:08:18.301Z,2.80
2022-08-03T11:11:47.690Z,3.70
2022-08-03T11:14:40.737Z,6.00
2022-08-03T11:18:11.132Z,3.00
2022-08-03T11:21:38.855Z,6.30
2022-08-03T11:25:53.686Z,5.90
2022-08-03T11:31:48.858Z,4.90
2022-08-03T11:35:14.833Z,6.60
2022-08-03T11:38:25.138Z,5.10
2022-08-03T11:41:16.865Z,4.40
2022-08-03T11:44:32.468Z,4.60
2022-08-03T11:47:24.707Z,3.40
2022-08-03T11:50:33.103Z,4.40
2022-08-03T11:54:01.879Z,8.20
2022-08-03T11:59:16.885Z,4.80
2022-08-03T12:04:22.865Z,6.30
2022-08-03T12:08:03.905Z,3.40
2022-08-03T12:11:26.161Z,4.10
2022-08-03T12:14:54.839Z,10.70
2022-08-03T12:18:23.679Z,3.40
2022-08-03T12:21:24.757Z,5.70
2022-08-03T12:24:53.291Z,3.50
2022-08-03T12:28:28.213Z,5.60
2022-08-03T12:32:06.625Z,3.50
2022-08-03T12:35:42.025Z,3.10
2022-08-03T12:38:58.423Z,3.40
2022-08-03T12:42:19.845Z,4.50
2022-08-03T12:45:34.788Z,3.60
2022-08-03T12:51:32.488Z,3.90
2022-08-03T12:54:51.412Z,4.10
2022-08-03T14:14:14.844Z,4.10
2022-08-03T14:17:18.128Z,3.60
2022-08-03T14:19:55.331Z,3.70
2022-08-03T14:23:26.412Z,4.20
2022-08-03T14:26:45.855Z,4.10
2022-08-03T14:34:10.482Z,4.40
2022-08-03T14:37:23.122Z,4.10
2022-08-03T14:40:41.710Z,3.30
2022-08-03T14:44:08.885Z,4.10
2022-08-03T14:47:20.248Z,3.80
2022-08-03T14:50:37.432Z,4.00
2022-08-03T14:52:59.669Z,3.60
2022-08-03T14:56:33.539Z,4.10
2022-08-03T15:00:02.155Z,4.00
2022-08-03T15:03:31.890Z,4.50
2022-08-03T15:14:13.557Z,3.30
2022-08-03T15:17:42.864Z,3.10
2022-08-03T15:21:01.996Z,3.80
2022-08-03T15:24:21.792Z,3.30
2022-08-03T15:28:02.932Z,3.80
2022-08-03T15:31:33.117Z,3.70
2022-08-03T15:35:01.757Z,5.30
2022-08-03T15:38:30.294Z,3.60
2022-08-03T15:41:58.776Z,4.30
2022-08-03T15:45:27.879Z,6.70
2022-08-03T15:49:05.193Z,4.50
2022-08-03T15:55:36.102Z,7.60
2022-08-03T15:59:04.450Z,4.10
2022-08-03T16:32:11.343Z,3.40
2022-08-03T17:18:49.016Z,3.90
2022-08-03T18:16:24.051Z,5.00
2022-08-03T18:22:38.600Z,4.80
2022-08-03T18:25:50.199Z,4.90
2022-08-03T18:29:14.338Z,5.20
2022-08-03T18:32:37.478Z,4.80
2022-08-03T18:39:21.052Z,4.80
2022-08-03T18:45:55.875Z,5.60
2022-08-03T18:51:52.530Z,4.70
2022-08-03T18:55:02.482Z,5.30
2022-08-03T18:58:03.608Z,5.10
2022-08-03T19:01:59.114Z,5.20
2022-08-03T19:04:58.285Z,5.40
2022-08-03T19:08:23.134Z,5.80
2022-08-03T19:11:17.777Z,6.10
2022-08-03T19:14:42.629Z,5.80
2022-08-03T20:12:39.362Z,10.20
2022-08-03T20:33:27.890Z,13.30
2022-08-03T20:37:04.086Z,12.70
2022-08-03T20:40:31.784Z,10.90
2022-08-03T21:14:39.759Z,10.40
2022-08-03T21:18:09.529Z,10.40
2022-08-03T21:21:38.716Z,11.00
2022-08-03T21:25:07.677Z,11.00
2022-08-03T21:28:37.222Z,9.80
2022-08-03T21:32:05.747Z,11.30
2022-08-03T21:35:36.223Z,10.50
2022-08-03T21:39:04.911Z,10.50
2022-08-03T21:42:33.707Z,11.00
2022-08-03T21:46:02.351Z,22.60
2022-08-03T21:50:02.630Z,18.40
2022-08-03T21:53:23.859Z,36.60
2022-08-03T21:57:02.560Z,15.20
2022-08-03T22:00:31.270Z,11.70
2022-08-03T22:03:59.937Z,11.90
2022-08-03T22:07:30.808Z,11.30
2022-08-03T22:10:59.686Z,10.90
2022-08-03T22:14:33.311Z,10.90
2022-08-03T22:18:01.956Z,11.10
2022-08-03T22:21:36.415Z,10.60
2022-08-03T22:25:05.322Z,11.50
2022-08-03T22:28:33.893Z,10.40
2022-08-03T22:32:02.335Z,11.10
2022-08-03T22:35:31.624Z,11.10
2022-08-03T22:39:00.311Z,11.00
2022-08-03T22:42:29.291Z,9.90
2022-08-03T22:46:08.999Z,9.70
2022-08-03T22:49:38.595Z,9.50
2022-08-03T22:53:07.333Z,9.40
2022-08-03T22:56:37.278Z,9.60
2022-08-03T23:00:07.742Z,9.40
2022-08-03T23:03:59.980Z,9.50
2022-08-03T23:07:26.666Z,9.00
2022-08-03T23:10:55.418Z,8.60
2022-08-03T23:14:24.126Z,8.70
2022-08-03T23:21:53.909Z,8.30
2022-08-03T23:25:28.613Z,7.20
2022-08-03T23:28:57.293Z,7.20
2022-08-03T23:32:25.928Z,7.40
2022-08-03T23:36:28.725Z,7.00
2022-08-03T23:39:41.841Z,6.50
2022-08-03T23:43:14.055Z,6.30
2022-08-03T23:46:49.765Z,6.20
2022-08-03T23:50:18.361Z,6.20
2022-08-03T23:54:01.936Z,6.10
2022-08-03T23:57:40.043Z,5.80
